Time;durP1;ratioP1;P1;durP2;ratioP2;P2;SDS_P1;SDS_P2;PMS_P1;PMS_P2;Temp;Humidity;BMP_temperature;BMP_pressure;BME280_temperature;BME280_humidity;BME280_pressure;Samples;Min_cycle;Max_cycle;Signal;HPM_P1;HPM_P2
2021/09/24 00:01:57;;;;;;;3.22;1.98;;;;;;;;;;5032447;28;20037;-51
2021/09/24 00:04:26;;;;;;;3.13;1.92;;;;;;;;;;5031968;28;20029;-51
2021/09/24 00:06:52;;;;;;;3.17;2.10;;;;;;;;;;5032900;28;20505;-52
2021/09/24 00:09:18;;;;;;;3.17;2.40;;;;;;;;;;5032644;28;20021;-51
2021/09/24 00:11:44;;;;;;;4.95;1.85;;;;;;;;;;5032583;28;20034;-51
2021/09/24 00:14:10;;;;;;;3.88;1.73;;;;;;;;;;5032128;28;20032;-51
2021/09/24 00:16:36;;;;;;;2.85;2.03;;;;;;;;;;5032426;28;20402;-51
2021/09/24 00:19:02;;;;;;;4.47;2.13;;;;;;;;;;5032562;28;20412;-51
2021/09/24 00:21:28;;;;;;;3.05;1.98;;;;;;;;;;5032762;28;20033;-52
2021/09/24 00:23:54;;;;;;;5.65;2.30;;;;;;;;;;5032117;28;20096;-51
2021/09/24 00:26:20;;;;;;;4.13;2.30;;;;;;;;;;5032667;28;20013;-51
2021/09/24 00:28:46;;;;;;;2.75;2.10;;;;;;;;;;5032010;28;20040;-51
2021/09/24 00:31:12;;;;;;;6.55;2.22;;;;;;;;;;5032661;28;20167;-51
2021/09/24 00:33:38;;;;;;;4.65;2.10;;;;;;;;;;5031865;28;20053;-51
2021/09/24 00:36:06;;;;;;;3.55;2.10;;;;;;;;;;5032670;28;20022;-51
2021/09/24 00:38:35;;;;;;;2.85;2.22;;;;;;;;;;5033169;28;20022;-51
2021/09/24 00:41:01;;;;;;;4.97;2.73;;;;;;;;;;5032866;28;20026;-51
2021/09/24 00:43:27;;;;;;;3.13;2.13;;;;;;;;;;5031621;28;20452;-51
2021/09/24 00:45:53;;;;;;;2.55;2.00;;;;;;;;;;5031984;28;20026;-51
2021/09/24 00:48:19;;;;;;;4.65;2.20;;;;;;;;;;5032466;28;20117;-51
2021/09/24 00:50:45;;;;;;;3.88;2.20;;;;;;;;;;5032324;28;20040;-52
2021/09/24 00:53:11;;;;;;;4.20;2.30;;;;;;;;;;5032209;28;20439;-52
2021/09/24 00:55:38;;;;;;;3.97;2.42;;;;;;;;;;5031952;28;20022;-51
2021/09/24 00:58:04;;;;;;;3.28;2.20;;;;;;;;;;5032460;28;20025;-51
2021/09/24 01:00:30;;;;;;;3.80;2.35;;;;;;;;;;5034843;28;20036;-51
2021/09/24 01:02:56;;;;;;;4.47;2.25;;;;;;;;;;5035838;28;20144;-51
2021/09/24 01:05:22;;;;;;;4.47;2.28;;;;;;;;;;5035397;28;20104;-51
2021/09/24 01:07:48;;;;;;;6.15;2.95;;;;;;;;;;5036020;28;20031;-51
2021/09/24 01:10:15;;;;;;;4.57;2.38;;;;;;;;;;5035835;28;20021;-51
2021/09/24 01:12:41;;;;;;;5.20;2.50;;;;;;;;;;5035620;28;20036;-52
2021/09/24 01:15:08;;;;;;;4.93;2.40;;;;;;;;;;5034990;28;20030;-51
2021/09/24 01:17:34;;;;;;;5.18;2.30;;;;;;;;;;5035923;28;20029;-51
2021/09/24 01:20:00;;;;;;;4.28;2.13;;;;;;;;;;5035687;28;20029;-51
2021/09/24 01:22:27;;;;;;;5.47;2.28;;;;;;;;;;5035728;28;20112;-51
2021/09/24 01:24:53;;;;;;;13.63;2.67;;;;;;;;;;5034794;28;20450;-51
2021/09/24 01:27:19;;;;;;;3.05;2.10;;;;;;;;;;5035493;28;20112;-52
2021/09/24 01:29:49;;;;;;;3.80;2.25;;;;;;;;;;5035428;28;20029;-51
2021/09/24 01:32:15;;;;;;;5.80;2.60;;;;;;;;;;5035554;28;20047;-51
2021/09/24 01:34:41;;;;;;;8.43;2.45;;;;;;;;;;5034849;28;20428;-51
2021/09/24 01:37:07;;;;;;;3.95;2.20;;;;;;;;;;5035892;28;20033;-51
2021/09/24 01:39:33;;;;;;;4.20;2.30;;;;;;;;;;5035503;28;20108;-52
2021/09/24 01:41:59;;;;;;;6.20;2.60;;;;;;;;;;5034699;28;20510;-51
2021/09/24 01:44:25;;;;;;;6.88;2.88;;;;;;;;;;5034415;28;20025;-52
2021/09/24 01:46:51;;;;;;;3.70;2.50;;;;;;;;;;5035096;28;20079;-51
2021/09/24 01:49:17;;;;;;;4.63;2.65;;;;;;;;;;5034954;28;20328;-51
2021/09/24 01:51:44;;;;;;;4.70;2.47;;;;;;;;;;5035423;28;20167;-51
2021/09/24 01:54:11;;;;;;;7.20;3.00;;;;;;;;;;5034253;28;20159;-51
2021/09/24 01:56:37;;;;;;;5.43;3.05;;;;;;;;;;5035130;28;20061;-51
2021/09/24 01:59:04;;;;;;;4.25;2.65;;;;;;;;;;5034689;28;20470;-51
2021/09/24 02:01:30;;;;;;;3.80;2.45;;;;;;;;;;5034976;28;20036;-52
2021/09/24 02:03:56;;;;;;;8.52;2.92;;;;;;;;;;5033984;28;20439;-51
2021/09/24 02:06:22;;;;;;;4.85;2.70;;;;;;;;;;5035055;28;20025;-51
2021/09/24 02:08:48;;;;;;;2.95;2.33;;;;;;;;;;5034814;28;20025;-51
2021/09/24 02:11:15;;;;;;;4.80;2.80;;;;;;;;;;5033954;28;20352;-51
2021/09/24 02:13:42;;;;;;;4.75;2.70;;;;;;;;;;5034271;28;20036;-52
2021/09/24 02:16:09;;;;;;;6.60;2.90;;;;;;;;;;5034620;28;20024;-51
2021/09/24 02:18:35;;;;;;;5.47;2.70;;;;;;;;;;5034624;28;20486;-51
2021/09/24 02:21:01;;;;;;;4.93;2.85;;;;;;;;;;5034575;28;20017;-51
2021/09/24 02:23:27;;;;;;;9.07;3.17;;;;;;;;;;5034038;28;20409;-52
2021/09/24 02:25:53;;;;;;;4.45;2.85;;;;;;;;;;5034165;28;20026;-51
2021/09/24 02:28:19;;;;;;;4.80;3.00;;;;;;;;;;5034309;28;20469;-51
2021/09/24 02:30:45;;;;;;;7.18;3.03;;;;;;;;;;5034630;28;20025;-51
2021/09/24 02:33:11;;;;;;;5.80;2.92;;;;;;;;;;5034565;28;20025;-52
2021/09/24 02:35:37;;;;;;;6.15;2.85;;;;;;;;;;5033463;28;20458;-52
2021/09/24 02:38:03;;;;;;;5.15;2.85;;;;;;;;;;5034109;28;20029;-52
2021/09/24 02:40:29;;;;;;;6.55;3.17;;;;;;;;;;5034570;28;20033;-51
2021/09/24 02:42:55;;;;;;;4.30;2.78;;;;;;;;;;5034025;28;20163;-51
2021/09/24 02:45:21;;;;;;;4.53;2.50;;;;;;;;;;5033169;28;20439;-51
2021/09/24 02:47:47;;;;;;;4.07;2.45;;;;;;;;;;5033561;28;20029;-51
2021/09/24 02:50:13;;;;;;;5.40;2.92;;;;;;;;;;5033841;28;20034;-51
2021/09/24 02:52:39;;;;;;;4.97;2.50;;;;;;;;;;5033699;28;20050;-52
2021/09/24 02:55:06;;;;;;;5.90;3.05;;;;;;;;;;5027215;28;20416;-51
2021/09/24 02:57:32;;;;;;;4.25;2.75;;;;;;;;;;5033437;28;20061;-52
2021/09/24 02:59:58;;;;;;;4.55;3.03;;;;;;;;;;5033977;28;20036;-51
2021/09/24 03:02:24;;;;;;;4.70;2.42;;;;;;;;;;5033936;28;20033;-51
2021/09/24 03:04:50;;;;;;;4.65;2.78;;;;;;;;;;5032915;28;20052;-51
2021/09/24 03:07:16;;;;;;;4.30;2.67;;;;;;;;;;5033587;28;20025;-51
2021/09/24 03:09:42;;;;;;;5.03;3.00;;;;;;;;;;5033895;28;20025;-51
2021/09/24 03:12:08;;;;;;;4.88;2.78;;;;;;;;;;5033522;28;20033;-51
2021/09/24 03:14:35;;;;;;;4.53;2.47;;;;;;;;;;5033158;28;20067;-51
2021/09/24 03:17:01;;;;;;;4.22;2.60;;;;;;;;;;5033438;28;20025;-52
2021/09/24 03:19:27;;;;;;;4.85;2.70;;;;;;;;;;5033406;28;20028;-51
2021/09/24 03:21:53;;;;;;;5.20;2.75;;;;;;;;;;5032909;28;20159;-51
2021/09/24 03:24:19;;;;;;;9.45;3.13;;;;;;;;;;5032927;28;20219;-51
2021/09/24 03:26:46;;;;;;;8.45;3.22;;;;;;;;;;5031874;28;20045;-51
2021/09/24 03:29:12;;;;;;;10.63;3.05;;;;;;;;;;5034078;28;20033;-51
2021/09/24 03:31:38;;;;;;;4.38;2.85;;;;;;;;;;5038357;28;20027;-51
2021/09/24 03:34:04;;;;;;;7.95;3.22;;;;;;;;;;5052269;28;20036;-52
2021/09/24 03:36:31;;;;;;;4.95;2.60;;;;;;;;;;5053167;28;20047;-51
2021/09/24 03:38:57;;;;;;;8.20;3.10;;;;;;;;;;5053187;28;20021;-51
2021/09/24 03:41:23;;;;;;;9.65;2.78;;;;;;;;;;5052937;28;20036;-51
2021/09/24 03:43:49;;;;;;;5.00;2.55;;;;;;;;;;5046217;28;20022;-51
2021/09/24 03:46:15;;;;;;;4.90;2.75;;;;;;;;;;5033068;28;20348;-51
2021/09/24 03:48:41;;;;;;;6.20;3.10;;;;;;;;;;5032721;28;20120;-51
2021/09/24 03:51:07;;;;;;;5.28;2.85;;;;;;;;;;5032733;28;20094;-51
2021/09/24 03:53:33;;;;;;;4.22;2.67;;;;;;;;;;5032465;28;20029;-51
2021/09/24 03:55:59;;;;;;;5.25;3.00;;;;;;;;;;5042150;28;20064;-51
2021/09/24 03:58:25;;;;;;;3.88;2.40;;;;;;;;;;5052865;28;20093;-51
2021/09/24 04:00:51;;;;;;;9.48;2.90;;;;;;;;;;5052242;28;20092;-51
2021/09/24 04:03:17;;;;;;;5.00;2.90;;;;;;;;;;5052619;28;20032;-51
2021/09/24 04:05:44;;;;;;;5.28;2.53;;;;;;;;;;5052009;28;20044;-51
2021/09/24 04:08:13;;;;;;;4.63;3.25;;;;;;;;;;5051468;28;20362;-52
2021/09/24 04:10:39;;;;;;;5.18;2.75;;;;;;;;;;5050125;28;20036;-51
2021/09/24 04:13:05;;;;;;;4.15;2.80;;;;;;;;;;5032865;28;20438;-52
2021/09/24 04:15:31;;;;;;;5.03;2.60;;;;;;;;;;5031882;28;20030;-51
2021/09/24 04:17:57;;;;;;;4.20;2.60;;;;;;;;;;5032558;28;20431;-51
2021/09/24 04:20:23;;;;;;;4.85;2.50;;;;;;;;;;5032730;28;20025;-51
2021/09/24 04:22:49;;;;;;;8.55;3.03;;;;;;;;;;5032525;28;20245;-51
2021/09/24 04:25:15;;;;;;;5.32;3.13;;;;;;;;;;5031999;28;20021;-51
2021/09/24 04:27:41;;;;;;;5.05;3.10;;;;;;;;;;5032671;28;20116;-51
2021/09/24 04:30:07;;;;;;;5.82;3.03;;;;;;;;;;5032717;28;20485;-52
2021/09/24 04:32:34;;;;;;;5.45;2.92;;;;;;;;;;5032545;28;20040;-52
2021/09/24 04:35:01;;;;;;;3.60;3.00;;;;;;;;;;5033295;28;20083;-51
2021/09/24 04:37:27;;;;;;;6.47;2.95;;;;;;;;;;5036317;28;20033;-52
2021/09/24 04:39:53;;;;;;;4.53;2.72;;;;;;;;;;5036412;28;20071;-51
2021/09/24 04:42:18;;;;;;;4.18;2.65;;;;;;;;;;5036347;28;20037;-52
2021/09/24 04:44:45;;;;;;;8.77;3.30;;;;;;;;;;5035716;28;20036;-51
2021/09/24 04:47:11;;;;;;;4.50;2.75;;;;;;;;;;5036654;28;20025;-52
2021/09/24 04:49:37;;;;;;;5.13;2.97;;;;;;;;;;5035951;28;20025;-51
2021/09/24 04:52:03;;;;;;;6.18;2.90;;;;;;;;;;5035968;28;20333;-52
2021/09/24 04:54:29;;;;;;;9.57;2.97;;;;;;;;;;5035701;28;20072;-52
2021/09/24 04:56:55;;;;;;;5.47;2.40;;;;;;;;;;5036430;28;20249;-51
2021/09/24 04:59:21;;;;;;;4.60;2.97;;;;;;;;;;5035237;28;20022;-51
2021/09/24 05:01:47;;;;;;;6.90;3.17;;;;;;;;;;5036560;28;20135;-52
2021/09/24 05:04:13;;;;;;;5.45;2.70;;;;;;;;;;5034876;28;20435;-52
2021/09/24 05:06:39;;;;;;;4.05;2.53;;;;;;;;;;5035594;28;20475;-51
2021/09/24 05:09:05;;;;;;;4.07;2.80;;;;;;;;;;5036144;28;20029;-52
2021/09/24 05:11:31;;;;;;;4.80;2.90;;;;;;;;;;5034537;28;20045;-52
2021/09/24 05:13:58;;;;;;;4.30;2.78;;;;;;;;;;5041125;28;20056;-51
2021/09/24 05:16:24;;;;;;;5.95;2.47;;;;;;;;;;5044493;28;20474;-52
2021/09/24 05:18:50;;;;;;;4.03;2.90;;;;;;;;;;5049244;28;20056;-51
2021/09/24 05:21:16;;;;;;;4.88;2.97;;;;;;;;;;5054946;28;20040;-51
2021/09/24 05:23:42;;;;;;;4.13;2.42;;;;;;;;;;5054617;28;20361;-51
2021/09/24 05:26:08;;;;;;;6.03;3.53;;;;;;;;;;5052626;28;20519;-51
2021/09/24 05:28:34;;;;;;;4.80;2.80;;;;;;;;;;5039945;28;20032;-51
2021/09/24 05:31:00;;;;;;;4.63;2.95;;;;;;;;;;5053633;28;20418;-51
2021/09/24 05:33:26;;;;;;;5.63;2.58;;;;;;;;;;5052791;28;20028;-51
2021/09/24 05:35:52;;;;;;;5.80;2.72;;;;;;;;;;5053236;28;20017;-51
2021/09/24 05:38:18;;;;;;;4.47;3.00;;;;;;;;;;5053495;28;20021;-51
2021/09/24 05:40:44;;;;;;;4.53;2.78;;;;;;;;;;5053061;28;20028;-51
2021/09/24 05:43:10;;;;;;;5.30;2.95;;;;;;;;;;5053048;28;20037;-51
2021/09/24 05:45:36;;;;;;;5.53;2.55;;;;;;;;;;5052010;28;20164;-51
2021/09/24 05:48:02;;;;;;;7.10;3.17;;;;;;;;;;5053950;28;20537;-51
2021/09/24 05:50:28;;;;;;;7.68;3.83;;;;;;;;;;5054562;28;20037;-51
2021/09/24 05:52:55;;;;;;;13.00;4.00;;;;;;;;;;5054835;28;20040;-51
2021/09/24 05:55:22;;;;;;;6.78;3.75;;;;;;;;;;5054282;28;20021;-51
2021/09/24 05:57:49;;;;;;;7.93;4.03;;;;;;;;;;5055211;28;20155;-51
2021/09/24 06:00:17;;;;;;;9.18;4.35;;;;;;;;;;5054914;28;20017;-51
2021/09/24 06:02:45;;;;;;;9.40;4.13;;;;;;;;;;5054705;28;20156;-52
2021/09/24 06:05:11;;;;;;;8.15;3.85;;;;;;;;;;5054491;28;20025;-52
2021/09/24 06:07:38;;;;;;;9.52;4.45;;;;;;;;;;5054432;28;20056;-52
2021/09/24 06:10:05;;;;;;;7.65;4.20;;;;;;;;;;5054831;28;20049;-51
2021/09/24 06:12:31;;;;;;;7.13;4.13;;;;;;;;;;5036224;28;20033;-51
2021/09/24 06:15:00;;;;;;;7.43;3.92;;;;;;;;;;5033980;28;20021;-51
2021/09/24 06:17:26;;;;;;;7.07;4.50;;;;;;;;;;5035268;28;20030;-51
2021/09/24 06:19:52;;;;;;;12.68;4.10;;;;;;;;;;5034693;28;20032;-51
2021/09/24 06:22:18;;;;;;;12.68;4.38;;;;;;;;;;5034194;28;20026;-51
2021/09/24 06:24:46;;;;;;;18.33;5.13;;;;;;;;;;5033843;28;20436;-52
2021/09/24 06:27:15;;;;;;;6.35;3.50;;;;;;;;;;5034504;28;20029;-52
2021/09/24 06:29:42;;;;;;;6.35;3.28;;;;;;;;;;5034474;28;20088;-52
2021/09/24 06:32:08;;;;;;;8.35;3.72;;;;;;;;;;5034799;28;20116;-52
2021/09/24 06:34:35;;;;;;;8.57;3.75;;;;;;;;;;5033925;28;20096;-52
2021/09/24 06:37:02;;;;;;;9.05;4.25;;;;;;;;;;5033929;28;20033;-52
2021/09/24 06:39:28;;;;;;;6.10;3.65;;;;;;;;;;5034409;28;20029;-52
2021/09/24 06:41:54;;;;;;;10.38;4.80;;;;;;;;;;5034168;28;20037;-52
2021/09/24 06:44:20;;;;;;;9.25;4.88;;;;;;;;;;5033134;28;20128;-52
2021/09/24 06:46:46;;;;;;;10.68;5.05;;;;;;;;;;5034158;28;20332;-52
2021/09/24 06:49:13;;;;;;;10.93;5.22;;;;;;;;;;5034330;28;20108;-52
2021/09/24 06:51:39;;;;;;;12.98;5.90;;;;;;;;;;5034392;28;20028;-52
2021/09/24 06:54:05;;;;;;;12.85;5.47;;;;;;;;;;5033168;28;20022;-52
2021/09/24 06:56:31;;;;;;;15.95;7.50;;;;;;;;;;5033808;28;20029;-52
2021/09/24 06:59:00;;;;;;;22.65;6.40;;;;;;;;;;5033260;28;20447;-52
2021/09/24 07:01:26;;;;;;;16.67;7.07;;;;;;;;;;5033892;28;20032;-52
2021/09/24 07:03:52;;;;;;;20.45;6.90;;;;;;;;;;5032926;28;20029;-52
2021/09/24 07:06:19;;;;;;;13.10;5.82;;;;;;;;;;5034015;28;20377;-52
2021/09/24 07:08:45;;;;;;;12.82;6.43;;;;;;;;;;5033145;28;20032;-52
2021/09/24 07:11:11;;;;;;;17.90;6.85;;;;;;;;;;5033711;28;20029;-52
2021/09/24 07:13:37;;;;;;;12.52;6.95;;;;;;;;;;5032576;28;20029;-52
2021/09/24 07:16:03;;;;;;;16.73;7.35;;;;;;;;;;5033860;28;20025;-52
2021/09/24 07:18:29;;;;;;;16.35;6.70;;;;;;;;;;5032307;28;20026;-52
2021/09/24 07:20:55;;;;;;;10.38;5.70;;;;;;;;;;5033523;28;20036;-52
2021/09/24 07:23:21;;;;;;;9.70;5.10;;;;;;;;;;5033069;28;20064;-52
2021/09/24 07:25:48;;;;;;;18.98;6.85;;;;;;;;;;5032454;28;20021;-52
2021/09/24 07:28:15;;;;;;;21.67;7.50;;;;;;;;;;5033274;28;20033;-52
2021/09/24 07:30:41;;;;;;;19.05;8.02;;;;;;;;;;5033430;28;20071;-51
2021/09/24 07:33:07;;;;;;;25.88;11.50;;;;;;;;;;5033029;28;20025;-52
2021/09/24 07:35:33;;;;;;;36.70;13.93;;;;;;;;;;5032516;28;20447;-52
2021/09/24 07:37:59;;;;;;;27.70;13.27;;;;;;;;;;5033210;28;20457;-52
2021/09/24 07:40:27;;;;;;;17.45;8.68;;;;;;;;;;5032684;28;20454;-51
2021/09/24 07:42:54;;;;;;;14.75;7.50;;;;;;;;;;5033070;28;20056;-52
2021/09/24 07:45:20;;;;;;;11.65;7.05;;;;;;;;;;5032382;28;20026;-52
2021/09/24 07:47:46;;;;;;;13.50;6.70;;;;;;;;;;5033440;28;20387;-52
2021/09/24 07:50:12;;;;;;;14.38;7.43;;;;;;;;;;5032737;28;20076;-52
2021/09/24 07:52:39;;;;;;;15.20;8.68;;;;;;;;;;5033286;28;20033;-52
2021/09/24 07:55:05;;;;;;;15.85;8.23;;;;;;;;;;5032030;28;20045;-52
2021/09/24 07:57:31;;;;;;;12.38;6.55;;;;;;;;;;5032879;28;20032;-52
2021/09/24 07:59:57;;;;;;;14.25;6.40;;;;;;;;;;5033070;28;20026;-52
2021/09/24 08:02:23;;;;;;;14.52;6.70;;;;;;;;;;5038979;28;20029;-52
2021/09/24 08:04:50;;;;;;;17.23;7.63;;;;;;;;;;5052135;28;20017;-52
2021/09/24 08:07:16;;;;;;;17.45;7.55;;;;;;;;;;5053220;28;20025;-52
2021/09/24 08:09:42;;;;;;;15.93;7.13;;;;;;;;;;5044776;28;20029;-52
2021/09/24 08:12:08;;;;;;;15.50;7.43;;;;;;;;;;5035851;28;20029;-52
2021/09/24 08:14:34;;;;;;;26.13;10.07;;;;;;;;;;5032226;28;20026;-53
2021/09/24 08:17:00;;;;;;;19.30;9.05;;;;;;;;;;5034383;28;20478;-53
2021/09/24 08:19:26;;;;;;;18.48;7.55;;;;;;;;;;5040833;28;20022;-52
2021/09/24 08:21:52;;;;;;;10.52;6.28;;;;;;;;;;5032739;28;20079;-52
2021/09/24 08:24:18;;;;;;;11.98;5.53;;;;;;;;;;5030625;28;20160;-52
2021/09/24 08:26:44;;;;;;;12.10;6.53;;;;;;;;;;5033024;28;20052;-52
2021/09/24 08:29:10;;;;;;;21.00;9.13;;;;;;;;;;5032088;28;20037;-52
2021/09/24 08:31:36;;;;;;;13.73;5.80;;;;;;;;;;5037699;28;20030;-52
2021/09/24 08:34:03;;;;;;;14.00;8.00;;;;;;;;;;5042070;28;20067;-52
2021/09/24 08:36:29;;;;;;;12.77;6.18;;;;;;;;;;5037919;28;20026;-53
2021/09/24 08:38:55;;;;;;;17.55;5.95;;;;;;;;;;5032674;28;20200;-52
2021/09/24 08:41:27;;;;;;;13.85;6.85;;;;;;;;;;5051841;28;20430;-52
2021/09/24 08:43:53;;;;;;;12.15;5.78;;;;;;;;;;5051291;28;20510;-52
2021/09/24 08:46:19;;;;;;;16.40;6.75;;;;;;;;;;5051660;28;20040;-52
2021/09/24 08:48:45;;;;;;;9.02;5.40;;;;;;;;;;5039405;28;20017;-52
2021/09/24 08:51:12;;;;;;;11.02;5.43;;;;;;;;;;5038316;28;20026;-52
2021/09/24 08:53:38;;;;;;;11.63;5.90;;;;;;;;;;5035315;28;20270;-52
2021/09/24 08:56:05;;;;;;;8.73;5.38;;;;;;;;;;5032421;28;20029;-52
2021/09/24 08:58:31;;;;;;;13.52;5.13;;;;;;;;;;5049699;28;20021;-52
2021/09/24 09:00:58;;;;;;;8.82;5.38;;;;;;;;;;5034749;28;20057;-51
2021/09/24 09:03:24;;;;;;;9.30;4.97;;;;;;;;;;5032184;28;20106;-52
2021/09/24 09:05:51;;;;;;;10.15;4.78;;;;;;;;;;5031469;28;20439;-52
2021/09/24 09:08:17;;;;;;;9.95;5.18;;;;;;;;;;5041274;28;20048;-52
2021/09/24 09:10:43;;;;;;;10.00;4.57;;;;;;;;;;5041091;28;20338;-52
2021/09/24 09:13:10;;;;;;;9.40;4.80;;;;;;;;;;5044614;28;20029;-52
2021/09/24 09:15:36;;;;;;;10.15;4.97;;;;;;;;;;5050893;28;20025;-52
2021/09/24 09:18:03;;;;;;;11.18;5.65;;;;;;;;;;5048981;28;20044;-52
2021/09/24 09:20:30;;;;;;;6.95;3.67;;;;;;;;;;5032613;28;20029;-52
2021/09/24 09:22:59;;;;;;;8.43;4.40;;;;;;;;;;5035766;28;20061;-52
2021/09/24 09:25:28;;;;;;;14.30;4.95;;;;;;;;;;5034138;28;20325;-52
2021/09/24 09:27:54;;;;;;;9.27;4.60;;;;;;;;;;5035678;28;20375;-52
2021/09/24 09:30:20;;;;;;;7.10;4.18;;;;;;;;;;5035474;28;20022;-52
2021/09/24 09:33:04;;;;;;;6.25;3.95;;;;;;;;;;5034966;28;20357;-52
2021/09/24 09:35:34;;;;;;;10.10;3.75;;;;;;;;;;5038980;28;20060;-52
2021/09/24 09:38:00;;;;;;;7.03;4.10;;;;;;;;;;5040733;28;20328;-52
2021/09/24 09:40:27;;;;;;;10.85;3.67;;;;;;;;;;5035362;28;20037;-52
2021/09/24 09:42:57;;;;;;;7.97;3.95;;;;;;;;;;5035306;28;20037;-52
2021/09/24 09:45:24;;;;;;;6.55;3.85;;;;;;;;;;5033943;28;20032;-52
2021/09/24 09:47:51;;;;;;;8.60;4.07;;;;;;;;;;5035414;28;20087;-51
2021/09/24 09:50:22;;;;;;;6.47;3.88;;;;;;;;;;5035129;28;20032;-52
2021/09/24 09:53:02;;;;;;;7.63;4.45;;;;;;;;;;5034824;28;20093;-52
2021/09/24 09:55:30;;;;;;;5.05;3.30;;;;;;;;;;5034312;28;20018;-52
2021/09/24 09:57:59;;;;;;;7.00;3.60;;;;;;;;;;5034488;28;20374;-52
2021/09/24 10:00:26;;;;;;;6.20;3.83;;;;;;;;;;5034388;28;20482;-52
2021/09/24 10:03:02;;;;;;;7.80;4.32;;;;;;;;;;5034966;28;20038;-52
2021/09/24 10:05:32;;;;;;;7.43;3.70;;;;;;;;;;5033991;28;20049;-52
2021/09/24 10:07:58;;;;;;;8.32;5.13;;;;;;;;;;5034322;28;20025;-52
2021/09/24 10:10:24;;;;;;;11.18;4.13;;;;;;;;;;5051437;28;20036;-52
2021/09/24 10:12:52;;;;;;;9.30;4.05;;;;;;;;;;5034319;28;20029;-52
2021/09/24 10:15:18;;;;;;;8.70;3.67;;;;;;;;;;5033169;28;20041;-52
2021/09/24 10:17:44;;;;;;;9.95;3.67;;;;;;;;;;5034792;28;20022;-52
2021/09/24 10:20:11;;;;;;;10.90;4.25;;;;;;;;;;5034605;28;20036;-52
2021/09/24 10:22:38;;;;;;;12.07;4.60;;;;;;;;;;5033809;28;20442;-52
2021/09/24 10:25:04;;;;;;;10.13;5.18;;;;;;;;;;5034227;28;20112;-52
2021/09/24 10:27:32;;;;;;;7.45;3.85;;;;;;;;;;5033877;28;20044;-52
2021/09/24 10:30:00;;;;;;;7.47;4.55;;;;;;;;;;5034093;28;20041;-52
2021/09/24 10:32:29;;;;;;;6.72;4.10;;;;;;;;;;5033435;28;20103;-52
2021/09/24 10:34:55;;;;;;;6.15;3.70;;;;;;;;;;5033625;28;20053;-52
2021/09/24 10:37:21;;;;;;;7.20;4.20;;;;;;;;;;5036953;28;20233;-52
2021/09/24 10:39:48;;;;;;;7.25;4.20;;;;;;;;;;5053897;28;20338;-52
2021/09/24 10:42:22;;;;;;;7.75;4.05;;;;;;;;;;5053627;28;20037;-52
2021/09/24 10:45:06;;;;;;;9.05;4.88;;;;;;;;;;5052937;28;20468;-51
2021/09/24 10:47:44;;;;;;;6.20;3.40;;;;;;;;;;5053042;28;20104;-52
2021/09/24 10:50:29;;;;;;;7.85;4.70;;;;;;;;;;5044878;28;20025;-52
2021/09/24 10:53:18;;;;;;;7.07;3.92;;;;;;;;;;5051702;28;20028;-52
2021/09/24 10:55:49;;;;;;;9.25;4.28;;;;;;;;;;5032562;28;20113;-52
2021/09/24 10:58:35;;;;;;;10.50;3.63;;;;;;;;;;5033717;28;20025;-52
2021/09/24 11:01:06;;;;;;;6.45;3.42;;;;;;;;;;5032665;28;20029;-52
2021/09/24 11:03:34;;;;;;;9.88;4.53;;;;;;;;;;5033382;28;20033;-52
2021/09/24 11:06:03;;;;;;;6.95;4.10;;;;;;;;;;5033551;28;20033;-52
2021/09/24 11:08:38;;;;;;;7.88;3.95;;;;;;;;;;5037840;28;20036;-52
2021/09/24 11:11:16;;;;;;;6.55;4.30;;;;;;;;;;5046997;28;20078;-53
2021/09/24 11:13:50;;;;;;;10.27;4.38;;;;;;;;;;5032647;28;20018;-52
2021/09/24 11:16:16;;;;;;;7.72;3.80;;;;;;;;;;5032913;28;20391;-52
2021/09/24 11:18:56;;;;;;;5.85;3.22;;;;;;;;;;5033215;28;20053;-52
2021/09/24 11:21:31;;;;;;;6.97;3.80;;;;;;;;;;5033100;28;20025;-53
2021/09/24 11:23:57;;;;;;;7.57;3.88;;;;;;;;;;5032911;28;20033;-52
2021/09/24 11:26:31;;;;;;;7.82;4.30;;;;;;;;;;5032904;28;20355;-52
2021/09/24 11:29:05;;;;;;;7.78;3.85;;;;;;;;;;5032512;28;20075;-52
2021/09/24 11:31:49;;;;;;;6.40;3.53;;;;;;;;;;5033218;28;20439;-52
2021/09/24 11:34:34;;;;;;;6.00;3.70;;;;;;;;;;5032802;28;20037;-52
2021/09/24 11:37:01;;;;;;;6.68;3.70;;;;;;;;;;5032612;28;20072;-52
2021/09/24 11:39:27;;;;;;;5.78;3.70;;;;;;;;;;5032697;28;20026;-52
2021/09/24 11:42:25;;;;;;;6.45;2.92;;;;;;;;;;5033237;28;20076;-52
2021/09/24 11:44:53;;;;;;;5.93;3.47;;;;;;;;;;5009466;28;20086;-52
2021/09/24 11:47:21;;;;;;;8.40;3.63;;;;;;;;;;5010899;28;20084;-52
2021/09/24 11:50:07;;;;;;;6.75;3.65;;;;;;;;;;5010745;28;20026;-52
2021/09/24 11:52:41;;;;;;;5.60;3.05;;;;;;;;;;5010329;28;20133;-52
2021/09/24 11:55:15;;;;;;;5.25;3.78;;;;;;;;;;5009963;28;20033;-52
2021/09/24 11:57:41;;;;;;;6.70;3.58;;;;;;;;;;5010524;28;20403;-52
2021/09/24 12:00:08;;;;;;;5.10;3.65;;;;;;;;;;5024721;28;20034;-52
2021/09/24 12:02:34;;;;;;;7.07;3.33;;;;;;;;;;5030439;28;20057;-52
2021/09/24 12:05:03;;;;;;;4.78;3.05;;;;;;;;;;5029664;28;20033;-52
2021/09/24 12:07:29;;;;;;;5.00;3.10;;;;;;;;;;5029511;28;20061;-52
2021/09/24 12:09:56;;;;;;;3.50;2.78;;;;;;;;;;5030372;28;20448;-52
2021/09/24 12:12:22;;;;;;;6.47;2.42;;;;;;;;;;5013160;28;20117;-53
2021/09/24 12:14:58;;;;;;;7.28;3.25;;;;;;;;;;5009042;28;20117;-52
2021/09/24 12:17:25;;;;;;;4.60;2.80;;;;;;;;;;5010308;28;20032;-52
2021/09/24 12:19:51;;;;;;;6.25;3.42;;;;;;;;;;5016011;28;20041;-52
2021/09/24 12:22:17;;;;;;;4.63;3.10;;;;;;;;;;5031931;28;20129;-52
2021/09/24 12:24:47;;;;;;;8.38;3.92;;;;;;;;;;5031405;28;20075;-52
2021/09/24 12:27:19;;;;;;;4.43;2.57;;;;;;;;;;5032246;28;20618;-52
2021/09/24 12:29:46;;;;;;;8.35;4.25;;;;;;;;;;5032136;28;20344;-52
2021/09/24 12:32:13;;;;;;;4.65;3.33;;;;;;;;;;5032504;28;20447;-52
2021/09/24 12:34:48;;;;;;;6.65;3.08;;;;;;;;;;5031496;28;20029;-52
2021/09/24 12:37:15;;;;;;;4.70;2.83;;;;;;;;;;5032202;28;20026;-52
2021/09/24 12:39:42;;;;;;;5.13;3.03;;;;;;;;;;5032490;28;20026;-52
2021/09/24 12:42:10;;;;;;;5.80;2.88;;;;;;;;;;5032311;28;20040;-52
2021/09/24 12:44:47;;;;;;;6.00;3.30;;;;;;;;;;5031016;28;20029;-52
2021/09/24 12:47:20;;;;;;;4.63;2.75;;;;;;;;;;5032363;28;20044;-52
2021/09/24 12:49:46;;;;;;;3.88;2.70;;;;;;;;;;5032430;28;20094;-52
2021/09/24 12:52:12;;;;;;;9.85;3.38;;;;;;;;;;5031811;28;20108;-52
2021/09/24 12:54:38;;;;;;;4.60;2.88;;;;;;;;;;5031642;28;20120;-52
2021/09/24 12:57:04;;;;;;;4.30;3.08;;;;;;;;;;5035631;28;20059;-52
2021/09/24 12:59:30;;;;;;;9.93;3.45;;;;;;;;;;5035807;28;20025;-52
2021/09/24 13:01:56;;;;;;;5.25;3.05;;;;;;;;;;5035714;28;20041;-53
2021/09/24 13:04:22;;;;;;;6.95;3.08;;;;;;;;;;5034778;28;20104;-52
2021/09/24 13:06:49;;;;;;;6.03;3.22;;;;;;;;;;5037916;28;20064;-52
2021/09/24 13:09:16;;;;;;;4.55;3.13;;;;;;;;;;5046506;28;20017;-52
2021/09/24 13:11:43;;;;;;;4.43;3.10;;;;;;;;;;5044377;28;20030;-53
2021/09/24 13:14:09;;;;;;;4.32;2.67;;;;;;;;;;5034386;28;20051;-52
2021/09/24 13:16:35;;;;;;;15.27;3.03;;;;;;;;;;5038338;28;20343;-52
2021/09/24 13:19:01;;;;;;;4.45;2.88;;;;;;;;;;5037670;28;20025;-52
2021/09/24 13:21:33;;;;;;;7.18;2.95;;;;;;;;;;5035271;28;20440;-52
2021/09/24 13:23:59;;;;;;;5.10;2.88;;;;;;;;;;5034562;28;20367;-52
2021/09/24 13:26:25;;;;;;;7.80;3.70;;;;;;;;;;5036117;28;20017;-52
2021/09/24 13:28:52;;;;;;;5.90;3.38;;;;;;;;;;5049785;28;20028;-52
2021/09/24 13:31:20;;;;;;;4.00;2.88;;;;;;;;;;5055413;28;20017;-52
2021/09/24 13:33:46;;;;;;;4.63;2.60;;;;;;;;;;5054271;28;20091;-53
2021/09/24 13:36:12;;;;;;;5.18;2.70;;;;;;;;;;5055042;28;20438;-52
2021/09/24 13:38:38;;;;;;;5.18;2.78;;;;;;;;;;5055367;28;20083;-52
2021/09/24 13:41:04;;;;;;;3.35;1.95;;;;;;;;;;5055260;28;20037;-52
2021/09/24 13:43:31;;;;;;;4.55;3.10;;;;;;;;;;5053196;28;20478;-52
2021/09/24 13:45:57;;;;;;;5.97;2.20;;;;;;;;;;5044696;28;20021;-52
2021/09/24 13:48:24;;;;;;;8.90;2.90;;;;;;;;;;5043686;28;20029;-52
2021/09/24 13:50:50;;;;;;;3.80;2.33;;;;;;;;;;5054410;28;20464;-52
2021/09/24 13:53:16;;;;;;;6.20;2.67;;;;;;;;;;5054748;28;20032;-52
2021/09/24 13:55:43;;;;;;;7.35;2.53;;;;;;;;;;5054246;28;20021;-52
2021/09/24 13:58:09;;;;;;;4.70;2.50;;;;;;;;;;5054439;28;20058;-52
2021/09/24 14:00:35;;;;;;;4.80;2.55;;;;;;;;;;5054789;28;20025;-52
2021/09/24 14:03:01;;;;;;;3.00;2.28;;;;;;;;;;5054595;28;20109;-52
2021/09/24 14:05:27;;;;;;;3.30;2.05;;;;;;;;;;5053473;28;20410;-52
2021/09/24 14:07:53;;;;;;;6.43;3.28;;;;;;;;;;5053681;28;20031;-52
2021/09/24 14:10:19;;;;;;;6.25;3.05;;;;;;;;;;5054517;28;20025;-52
2021/09/24 14:12:49;;;;;;;5.53;2.75;;;;;;;;;;5036901;28;20152;-52
2021/09/24 14:15:15;;;;;;;4.65;2.70;;;;;;;;;;5033447;28;20029;-52
2021/09/24 14:17:41;;;;;;;4.28;2.25;;;;;;;;;;5060535;28;20039;-52
2021/09/24 14:20:08;;;;;;;10.27;2.40;;;;;;;;;;5073878;28;20389;-52
2021/09/24 14:22:34;;;;;;;4.38;2.88;;;;;;;;;;5074398;28;20456;-52
2021/09/24 14:25:00;;;;;;;3.75;2.78;;;;;;;;;;5073831;28;20127;-52
2021/09/24 14:27:27;;;;;;;3.17;2.35;;;;;;;;;;5074026;28;20119;-52
2021/09/24 14:29:53;;;;;;;4.15;2.25;;;;;;;;;;5073714;28;20013;-52
2021/09/24 14:32:19;;;;;;;2.78;2.13;;;;;;;;;;5074431;28;20028;-52
2021/09/24 14:34:45;;;;;;;5.57;2.72;;;;;;;;;;5072701;28;20017;-52
2021/09/24 14:37:11;;;;;;;5.07;2.30;;;;;;;;;;5074326;28;20029;-52
2021/09/24 14:39:37;;;;;;;3.78;2.60;;;;;;;;;;5074115;28;20398;-53
2021/09/24 14:42:03;;;;;;;5.28;2.58;;;;;;;;;;5073746;28;20031;-53